createdAt,value
2017-07-21T00:00:47.918Z,3.40
2017-07-21T00:03:15.514Z,3.40
2017-07-21T00:05:43.069Z,3.63
2017-07-21T00:08:10.651Z,4.17
2017-07-21T00:10:38.209Z,3.93
2017-07-21T00:13:05.807Z,3.90
2017-07-21T00:15:34.175Z,3.80
2017-07-21T00:18:01.767Z,4.10
2017-07-21T00:20:29.409Z,3.60
2017-07-21T00:22:57.762Z,3.53
2017-07-21T00:25:25.322Z,3.60
2017-07-21T00:27:52.919Z,3.30
2017-07-21T00:30:20.532Z,3.60
2017-07-21T00:32:48.144Z,3.50
2017-07-21T00:35:15.724Z,3.30
2017-07-21T00:37:43.302Z,4.40
2017-07-21T00:40:10.898Z,4.03
2017-07-21T00:42:38.469Z,4.00
2017-07-21T00:45:06.815Z,3.97
2017-07-21T00:47:34.374Z,4.00
2017-07-21T00:50:02.086Z,3.87
2017-07-21T00:52:29.647Z,4.40
2017-07-21T00:54:57.221Z,4.07
2017-07-21T00:57:24.801Z,3.90
2017-07-21T00:59:52.389Z,3.80
2017-07-21T01:02:19.953Z,3.60
2017-07-21T01:04:48.317Z,4.10
2017-07-21T01:07:15.920Z,4.03
2017-07-21T01:09:44.251Z,3.67
2017-07-21T01:12:11.838Z,4.00
2017-07-21T01:14:39.395Z,4.60
2017-07-21T01:17:07.018Z,3.70
2017-07-21T01:19:34.654Z,3.77
2017-07-21T01:22:02.988Z,4.10
2017-07-21T01:24:30.586Z,4.60
2017-07-21T01:26:58.923Z,4.40
2017-07-21T01:29:26.497Z,4.13
2017-07-21T01:31:54.092Z,4.03
2017-07-21T01:34:22.481Z,4.23
2017-07-21T01:36:50.093Z,4.20
2017-07-21T01:39:17.641Z,3.93
2017-07-21T01:41:45.211Z,3.90
2017-07-21T01:44:12.789Z,4.60
2017-07-21T01:46:40.354Z,4.00
2017-07-21T01:49:07.933Z,3.90
2017-07-21T01:51:35.512Z,4.13
2017-07-21T01:54:03.086Z,4.03
2017-07-21T01:56:30.642Z,3.57
2017-07-21T01:58:58.250Z,4.50
2017-07-21T02:01:25.823Z,3.73
2017-07-21T02:03:53.473Z,3.90
2017-07-21T02:06:21.041Z,3.70
2017-07-21T02:08:48.642Z,4.40
2017-07-21T02:11:16.205Z,3.87
2017-07-21T02:13:43.899Z,3.93
2017-07-21T02:16:11.467Z,4.70
2017-07-21T02:18:39.038Z,4.27
2017-07-21T02:21:06.678Z,3.60
2017-07-21T02:23:34.266Z,4.10
2017-07-21T02:26:01.849Z,3.70
2017-07-21T02:28:29.425Z,4.00
2017-07-21T02:30:57.006Z,4.10
2017-07-21T02:33:24.610Z,4.23
2017-07-21T02:35:52.179Z,3.43
2017-07-21T02:38:19.739Z,3.90
2017-07-21T02:40:47.326Z,4.00
2017-07-21T02:43:15.658Z,3.40
2017-07-21T02:45:43.226Z,3.70
2017-07-21T02:48:10.820Z,3.53
2017-07-21T02:50:38.386Z,3.70
2017-07-21T02:53:06.753Z,3.50
2017-07-21T02:55:34.315Z,3.53
2017-07-21T02:58:02.658Z,3.87
2017-07-21T03:00:30.258Z,3.90
2017-07-21T03:02:57.818Z,3.73
2017-07-21T03:05:27.018Z,4.00
2017-07-21T03:07:55.504Z,4.73
2017-07-21T03:10:23.085Z,4.00
2017-07-21T03:12:50.634Z,3.80
2017-07-21T03:15:18.969Z,4.23
2017-07-21T03:17:46.591Z,3.70
2017-07-21T03:20:14.182Z,3.83
2017-07-21T03:22:53.466Z,4.03
2017-07-21T03:25:21.158Z,3.30
2017-07-21T03:27:48.729Z,3.70
2017-07-21T03:30:16.350Z,3.60
2017-07-21T03:32:44.665Z,4.00
2017-07-21T03:35:12.226Z,4.23
2017-07-21T03:37:40.196Z,3.90
2017-07-21T03:40:07.766Z,4.50
2017-07-21T03:42:35.322Z,4.00
2017-07-21T03:45:04.322Z,3.73
2017-07-21T03:47:31.932Z,4.00
2017-07-21T03:50:00.266Z,3.50
2017-07-21T03:52:27.854Z,4.33
2017-07-21T03:54:55.529Z,3.80
2017-07-21T03:57:23.089Z,3.70
2017-07-21T03:59:50.676Z,3.07
2017-07-21T04:02:18.237Z,4.10
2017-07-21T04:04:45.819Z,4.13
2017-07-21T04:07:13.427Z,4.20
2017-07-21T04:09:41.009Z,3.20
2017-07-21T04:12:09.354Z,3.87
2017-07-21T04:14:37.242Z,3.63
2017-07-21T04:17:04.815Z,3.73
2017-07-21T04:19:33.149Z,2.90
2017-07-21T04:22:01.103Z,3.30
2017-07-21T04:24:28.663Z,3.40
2017-07-21T04:26:56.226Z,3.17
2017-07-21T04:29:23.800Z,3.23
2017-07-21T04:31:51.388Z,2.60
2017-07-21T04:34:18.995Z,2.73
2017-07-21T04:36:46.568Z,3.37
2017-07-21T04:39:14.131Z,2.87
2017-07-21T04:41:41.700Z,2.50
2017-07-21T04:44:09.265Z,2.63
2017-07-21T04:46:36.851Z,2.70
2017-07-21T04:49:04.477Z,2.60
2017-07-21T04:51:32.150Z,2.40
2017-07-21T04:53:59.721Z,2.57
2017-07-21T04:56:27.323Z,2.77
2017-07-21T04:58:55.747Z,2.97
2017-07-21T05:01:23.292Z,2.90
2017-07-21T05:03:50.814Z,3.70
2017-07-21T05:06:18.401Z,3.40
2017-07-21T05:08:45.989Z,3.60
2017-07-21T05:11:13.550Z,3.30
2017-07-21T05:13:41.106Z,3.40
2017-07-21T05:16:08.707Z,3.27
2017-07-21T05:18:36.273Z,2.77
2017-07-21T05:21:03.830Z,2.90
2017-07-21T05:23:31.425Z,3.00
2017-07-21T05:25:58.989Z,2.43
2017-07-21T05:28:26.566Z,2.60
2017-07-21T05:30:54.210Z,2.80
2017-07-21T05:33:21.775Z,2.57
2017-07-21T05:35:49.385Z,2.40
2017-07-21T05:38:16.951Z,2.43
2017-07-21T05:40:44.509Z,2.63
2017-07-21T05:43:12.146Z,2.40
2017-07-21T05:45:39.709Z,3.10
2017-07-21T05:48:07.285Z,2.60
2017-07-21T05:50:34.878Z,2.53
2017-07-21T05:53:02.471Z,2.13
2017-07-21T05:55:30.048Z,2.07
2017-07-21T05:57:57.620Z,2.00
2017-07-21T06:00:25.181Z,2.00
2017-07-21T06:02:52.772Z,2.00
2017-07-21T06:05:20.324Z,1.87
2017-07-21T06:07:47.886Z,1.73
2017-07-21T06:10:15.455Z,2.20
2017-07-21T06:12:43.034Z,2.00
2017-07-21T06:15:11.348Z,2.27
2017-07-21T06:17:38.927Z,1.87
2017-07-21T06:20:07.323Z,2.10
2017-07-21T06:22:34.886Z,1.90
2017-07-21T06:25:02.527Z,1.70
2017-07-21T06:27:30.175Z,1.70
2017-07-21T06:29:57.745Z,1.40
2017-07-21T06:32:25.331Z,1.90
2017-07-21T06:34:52.945Z,1.67
2017-07-21T06:37:20.540Z,1.83
2017-07-21T06:39:48.120Z,1.73
2017-07-21T06:42:15.720Z,1.93
2017-07-21T06:44:43.322Z,2.10
2017-07-21T06:47:11.851Z,1.60
2017-07-21T06:49:39.421Z,1.90
2017-07-21T06:52:07.725Z,2.07
2017-07-21T06:54:35.320Z,1.97
2017-07-21T06:57:02.938Z,1.80
2017-07-21T06:59:30.495Z,1.63
2017-07-21T07:01:58.087Z,1.67
2017-07-21T07:04:25.651Z,1.47
2017-07-21T07:06:53.251Z,1.60
2017-07-21T07:09:20.827Z,1.97
2017-07-21T07:11:49.133Z,2.00
2017-07-21T07:14:16.695Z,1.70
2017-07-21T07:16:44.429Z,2.10
2017-07-21T07:19:12.001Z,1.60
2017-07-21T07:21:39.714Z,1.80
2017-07-21T07:24:07.312Z,2.10
2017-07-21T07:26:34.881Z,1.90
2017-07-21T07:29:02.393Z,1.87
2017-07-21T07:31:30.082Z,2.00
2017-07-21T07:33:58.460Z,2.00
2017-07-21T07:36:26.381Z,1.60
2017-07-21T07:38:54.027Z,2.03
2017-07-21T07:41:21.618Z,1.43
2017-07-21T07:43:49.216Z,1.43
2017-07-21T07:46:17.560Z,1.80
2017-07-21T07:48:45.154Z,1.60
2017-07-21T07:51:13.527Z,1.80
2017-07-21T07:53:41.133Z,1.80
2017-07-21T07:56:08.716Z,2.17
2017-07-21T07:58:36.447Z,1.90
2017-07-21T08:01:04.070Z,2.03
2017-07-21T08:03:35.732Z,1.87
2017-07-21T08:06:03.506Z,1.80
2017-07-21T08:08:32.125Z,1.47
2017-07-21T08:10:59.918Z,1.30
2017-07-21T08:13:27.530Z,1.20
2017-07-21T08:15:55.200Z,1.70
2017-07-21T08:18:23.526Z,1.50
2017-07-21T08:20:51.087Z,1.50
2017-07-21T08:23:20.315Z,1.50
2017-07-21T08:25:47.892Z,1.57
2017-07-21T08:28:24.629Z,1.40
2017-07-21T08:30:52.197Z,1.33
2017-07-21T08:33:19.807Z,1.43
2017-07-21T08:35:47.696Z,2.70
2017-07-21T08:38:15.370Z,1.77
2017-07-21T08:40:42.957Z,2.00
2017-07-21T08:43:10.588Z,1.80
2017-07-21T08:45:38.247Z,2.20
2017-07-21T08:48:05.907Z,1.50
2017-07-21T08:50:33.517Z,1.30
2017-07-21T08:53:01.124Z,2.00
2017-07-21T08:55:30.049Z,2.07
2017-07-21T08:57:57.729Z,1.90
2017-07-21T09:00:25.326Z,1.60
2017-07-21T09:02:52.922Z,1.60
2017-07-21T09:05:21.624Z,1.70
2017-07-21T09:07:49.813Z,1.80
2017-07-21T09:10:17.597Z,1.70
2017-07-21T09:12:46.097Z,1.67
2017-07-21T09:15:13.711Z,1.77
2017-07-21T09:17:42.690Z,1.57
2017-07-21T09:20:10.409Z,2.07
2017-07-21T09:22:38.025Z,1.90
2017-07-21T09:25:05.641Z,1.77
2017-07-21T09:27:33.296Z,1.50
2017-07-21T09:30:01.066Z,1.50
2017-07-21T09:32:29.424Z,2.03
2017-07-21T09:34:57.002Z,1.60
2017-07-21T09:37:25.354Z,1.97
2017-07-21T09:39:52.929Z,1.63
2017-07-21T09:42:20.506Z,1.90
2017-07-21T09:44:48.890Z,1.67
2017-07-21T09:47:17.282Z,1.50
2017-07-21T09:49:44.850Z,1.60
2017-07-21T09:52:12.455Z,1.80
2017-07-21T09:54:40.026Z,1.53
2017-07-21T09:57:07.578Z,2.00
2017-07-21T09:59:35.230Z,2.20
2017-07-21T10:02:02.861Z,2.10
2017-07-21T10:04:30.517Z,1.90
2017-07-21T10:06:58.120Z,1.83
2017-07-21T10:09:25.714Z,1.80
2017-07-21T10:11:53.270Z,1.93
2017-07-21T10:14:20.866Z,1.70
2017-07-21T10:16:48.703Z,1.50
2017-07-21T10:19:17.038Z,1.60
2017-07-21T10:21:44.647Z,1.90
2017-07-21T10:24:12.974Z,1.80
2017-07-21T10:26:40.553Z,1.83
2017-07-21T10:29:08.134Z,1.90
2017-07-21T10:31:35.707Z,1.60
2017-07-21T10:34:03.320Z,1.80
2017-07-21T10:36:30.911Z,1.73
2017-07-21T10:38:58.507Z,2.20
2017-07-21T10:41:26.076Z,1.73
2017-07-21T10:43:53.626Z,2.00
2017-07-21T10:46:21.229Z,2.00
2017-07-21T10:48:48.789Z,1.67
2017-07-21T10:51:16.353Z,2.10
2017-07-21T10:53:43.937Z,1.80
2017-07-21T10:56:11.530Z,2.00
2017-07-21T10:58:39.113Z,1.60
2017-07-21T11:01:06.673Z,1.73
2017-07-21T11:03:34.245Z,1.80
2017-07-21T11:06:01.923Z,1.90
2017-07-21T11:08:29.477Z,1.90
2017-07-21T11:10:57.067Z,1.77
2017-07-21T11:13:24.756Z,2.00
2017-07-21T11:15:53.095Z,1.73
2017-07-21T11:18:21.460Z,1.60
2017-07-21T11:20:49.105Z,2.10
2017-07-21T11:23:16.690Z,1.80
2017-07-21T11:25:44.398Z,1.60
2017-07-21T11:28:11.986Z,1.60
2017-07-21T11:30:39.550Z,2.03
2017-07-21T11:33:07.141Z,1.70
2017-07-21T11:35:34.715Z,1.40
2017-07-21T11:38:02.285Z,1.80
2017-07-21T11:40:29.858Z,2.20
2017-07-21T11:42:58.229Z,1.73
2017-07-21T11:45:25.766Z,1.97
2017-07-21T11:47:53.324Z,1.93
2017-07-21T11:50:20.913Z,1.67
2017-07-21T11:52:49.255Z,1.70
2017-07-21T11:55:16.853Z,2.23
2017-07-21T11:57:45.174Z,1.90
2017-07-21T12:00:12.733Z,1.70
2017-07-21T12:02:43.434Z,1.70
2017-07-21T12:05:11.798Z,1.90
2017-07-21T12:07:39.343Z,2.00
2017-07-21T12:10:06.946Z,1.83
2017-07-21T12:12:35.269Z,1.90
2017-07-21T12:15:12.381Z,1.97
2017-07-21T12:17:40.105Z,2.00
2017-07-21T12:20:07.733Z,1.80
2017-07-21T12:22:35.327Z,2.10
2017-07-21T12:25:02.970Z,1.87
2017-07-21T12:27:30.579Z,1.90
2017-07-21T12:29:58.195Z,2.10
2017-07-21T12:32:25.742Z,2.40
2017-07-21T12:34:54.097Z,1.70
2017-07-21T12:37:21.700Z,1.80
2017-07-21T12:39:49.282Z,2.23
2017-07-21T12:42:16.858Z,1.83
2017-07-21T12:44:44.452Z,1.80
2017-07-21T12:47:12.084Z,1.80
2017-07-21T12:49:41.483Z,2.00
2017-07-21T12:52:09.070Z,2.17
2017-07-21T12:54:37.439Z,1.70
2017-07-21T12:57:05.044Z,1.93
2017-07-21T12:59:33.362Z,1.60
2017-07-21T13:02:00.920Z,1.90
2017-07-21T13:04:28.539Z,1.87
2017-07-21T13:06:56.911Z,1.70
2017-07-21T13:09:25.259Z,2.10
2017-07-21T13:11:52.830Z,2.20
2017-07-21T13:14:20.410Z,2.00
2017-07-21T13:16:48.751Z,2.30
2017-07-21T13:19:16.398Z,2.03
2017-07-21T13:21:43.957Z,2.10
2017-07-21T13:24:11.539Z,1.63
2017-07-21T13:26:39.150Z,2.20
2017-07-21T13:29:06.713Z,2.00
2017-07-21T13:31:34.303Z,1.63
2017-07-21T13:34:01.933Z,1.90
2017-07-21T13:36:29.502Z,2.20
2017-07-21T13:38:57.222Z,1.90
2017-07-21T13:41:24.803Z,1.90
2017-07-21T13:43:53.153Z,2.00
2017-07-21T13:46:20.723Z,2.33
2017-07-21T13:48:48.331Z,2.70
2017-07-21T13:51:16.113Z,2.03
2017-07-21T13:53:43.685Z,1.80
2017-07-21T13:56:11.266Z,2.07
2017-07-21T13:58:38.899Z,3.97
2017-07-21T14:01:07.431Z,1.93
2017-07-21T14:03:35.011Z,2.10
2017-07-21T14:06:04.035Z,2.00
2017-07-21T14:08:31.600Z,2.00
2017-07-21T14:11:00.360Z,1.80
2017-07-21T14:13:29.068Z,1.90
2017-07-21T14:15:59.249Z,2.00
2017-07-21T14:18:26.823Z,2.50
2017-07-21T14:20:55.294Z,2.33
2017-07-21T14:23:23.642Z,2.70
2017-07-21T14:25:51.350Z,3.40
2017-07-21T14:28:18.934Z,2.43
2017-07-21T14:30:46.548Z,1.80
2017-07-21T14:33:14.125Z,1.90
2017-07-21T14:35:42.472Z,1.90
2017-07-21T14:38:10.018Z,2.20
2017-07-21T14:40:37.644Z,1.90
2017-07-21T14:43:05.203Z,1.90
2017-07-21T14:45:33.727Z,1.87
2017-07-21T14:48:01.329Z,3.70
2017-07-21T14:50:28.896Z,2.03
2017-07-21T14:52:57.408Z,2.10
2017-07-21T14:55:25.589Z,2.30
2017-07-21T14:57:53.177Z,2.20
2017-07-21T15:00:21.682Z,1.90
2017-07-21T15:02:49.243Z,1.97
2017-07-21T15:05:16.807Z,2.20
2017-07-21T15:07:44.521Z,2.10
2017-07-21T15:10:12.364Z,1.97
2017-07-21T15:12:40.715Z,2.00
2017-07-21T15:15:08.294Z,2.00
2017-07-21T15:17:36.625Z,2.40
2017-07-21T15:20:04.237Z,1.80
2017-07-21T15:22:32.578Z,2.23
2017-07-21T15:25:00.283Z,2.00
2017-07-21T15:27:28.665Z,1.70
2017-07-21T15:29:56.239Z,1.80
2017-07-21T15:32:23.812Z,1.77
2017-07-21T15:34:51.443Z,2.03
2017-07-21T15:37:19.863Z,1.67
2017-07-21T15:39:47.430Z,2.30
2017-07-21T15:42:15.306Z,2.00
2017-07-21T15:44:42.874Z,1.63
2017-07-21T15:47:10.454Z,1.83
2017-07-21T15:49:38.074Z,1.80
2017-07-21T15:52:05.743Z,2.00
2017-07-21T15:54:33.332Z,2.33
2017-07-21T15:57:00.909Z,1.73
2017-07-21T15:59:29.270Z,1.60
2017-07-21T16:01:56.847Z,2.00
2017-07-21T16:04:25.209Z,1.50
2017-07-21T16:06:52.762Z,1.93
2017-07-21T16:09:20.330Z,1.47
2017-07-21T16:11:47.939Z,2.20
2017-07-21T16:14:15.586Z,1.60
2017-07-21T16:16:43.923Z,2.10
2017-07-21T16:19:11.495Z,2.30
2017-07-21T16:21:39.078Z,5.13
2017-07-21T16:24:06.651Z,2.70
2017-07-21T16:26:34.244Z,1.90
2017-07-21T16:29:01.827Z,2.20
2017-07-21T16:31:29.387Z,1.83
2017-07-21T16:33:56.989Z,2.00
2017-07-21T16:36:25.318Z,2.00
2017-07-21T16:38:52.903Z,1.80
2017-07-21T16:41:20.484Z,2.00
2017-07-21T16:43:48.809Z,1.90
2017-07-21T16:46:16.397Z,2.03
2017-07-21T16:48:44.014Z,1.90
2017-07-21T16:51:11.605Z,1.97
2017-07-21T16:53:40.026Z,2.20
2017-07-21T16:56:07.778Z,1.90
2017-07-21T16:58:35.418Z,1.87
2017-07-21T17:01:06.528Z,2.33
2017-07-21T17:03:34.175Z,2.20
2017-07-21T17:06:02.558Z,2.40
2017-07-21T17:08:30.935Z,2.27
2017-07-21T17:10:59.369Z,1.87
2017-07-21T17:13:30.236Z,2.20
2017-07-21T17:15:57.912Z,2.07
2017-07-21T17:18:26.250Z,2.53
2017-07-21T17:20:53.887Z,2.67
2017-07-21T17:23:21.503Z,2.37
2017-07-21T17:25:49.140Z,2.73
2017-07-21T17:28:17.061Z,2.53
2017-07-21T17:30:46.472Z,2.40
2017-07-21T17:33:14.220Z,2.63
2017-07-21T17:35:42.590Z,2.63
2017-07-21T17:38:10.931Z,2.77
2017-07-21T17:40:38.521Z,3.43
2017-07-21T17:43:06.103Z,2.63
2017-07-21T17:45:33.705Z,2.50
2017-07-21T17:48:02.171Z,2.77
2017-07-21T17:50:29.762Z,3.17
2017-07-21T17:52:57.414Z,2.70
2017-07-21T17:55:24.994Z,2.77
2017-07-21T17:57:52.570Z,2.43
2017-07-21T18:00:20.223Z,3.17
2017-07-21T18:02:47.786Z,3.07
2017-07-21T18:05:15.381Z,2.93
2017-07-21T18:07:42.946Z,2.83
2017-07-21T18:10:10.521Z,3.70
2017-07-21T18:12:38.090Z,3.43
2017-07-21T18:15:07.702Z,3.20
2017-07-21T18:17:37.043Z,3.33
2017-07-21T18:20:04.605Z,3.17
2017-07-21T18:22:32.201Z,3.00
2017-07-21T18:24:59.799Z,3.27
2017-07-21T18:27:27.366Z,2.97
2017-07-21T18:29:55.005Z,3.10
2017-07-21T18:32:22.602Z,3.43
2017-07-21T18:34:50.292Z,3.20
2017-07-21T18:37:18.653Z,4.43
2017-07-21T18:39:46.261Z,3.10
2017-07-21T18:42:13.889Z,3.20
2017-07-21T18:44:41.462Z,3.20
2017-07-21T18:47:09.807Z,3.30
2017-07-21T18:49:37.406Z,3.47
2017-07-21T18:52:05.808Z,3.40
2017-07-21T18:54:33.388Z,2.97
2017-07-21T18:57:00.995Z,3.37
2017-07-21T18:59:29.342Z,3.57
2017-07-21T19:01:56.930Z,3.40
2017-07-21T19:04:24.481Z,3.50
2017-07-21T19:06:52.057Z,3.70
2017-07-21T19:09:19.702Z,3.73
2017-07-21T19:11:47.251Z,3.90
2017-07-21T19:14:14.844Z,4.30
2017-07-21T19:16:42.428Z,3.80
2017-07-21T19:19:10.002Z,4.30
2017-07-21T19:21:37.596Z,4.23
2017-07-21T19:24:05.208Z,3.90
2017-07-21T19:26:33.537Z,3.90
2017-07-21T19:29:01.117Z,4.27
2017-07-21T19:31:29.779Z,4.13
2017-07-21T19:33:57.400Z,4.37
2017-07-21T19:36:25.004Z,4.53
2017-07-21T19:38:52.565Z,4.20
2017-07-21T19:41:20.187Z,4.20
2017-07-21T19:43:47.741Z,4.40
2017-07-21T19:46:15.353Z,4.10
2017-07-21T19:48:42.951Z,4.13
2017-07-21T19:51:11.321Z,4.27
2017-07-21T19:53:39.686Z,4.00
2017-07-21T19:56:07.258Z,4.40
2017-07-21T19:58:34.882Z,4.97
2017-07-21T20:01:02.502Z,4.60
2017-07-21T20:03:30.844Z,4.97
2017-07-21T20:05:58.412Z,5.20
2017-07-21T20:08:25.973Z,4.80
2017-07-21T20:10:53.913Z,4.10
2017-07-21T20:13:21.524Z,4.87
2017-07-21T20:15:49.111Z,4.47
2017-07-21T20:18:16.702Z,4.50
2017-07-21T20:20:44.316Z,4.50
2017-07-21T20:23:12.691Z,4.70
2017-07-21T20:25:40.278Z,4.93
2017-07-21T20:28:07.883Z,5.10
2017-07-21T20:30:35.464Z,4.80
2017-07-21T20:33:03.057Z,4.20
2017-07-21T20:35:30.780Z,4.80
2017-07-21T20:37:58.333Z,4.73
2017-07-21T20:40:25.922Z,4.90
2017-07-21T20:42:54.248Z,4.70
2017-07-21T20:45:21.846Z,4.77
2017-07-21T20:47:49.418Z,5.30
2017-07-21T20:50:16.990Z,4.83
2017-07-21T20:52:44.587Z,4.90
2017-07-21T20:55:12.183Z,4.80
2017-07-21T20:57:39.794Z,4.70
2017-07-21T21:00:07.398Z,4.63
2017-07-21T21:02:34.966Z,5.17
2017-07-21T21:05:02.677Z,5.03
2017-07-21T21:07:30.240Z,5.33
2017-07-21T21:09:57.959Z,4.90
2017-07-21T21:12:25.510Z,4.50
2017-07-21T21:14:53.099Z,4.10
2017-07-21T21:17:21.457Z,4.53
2017-07-21T21:19:49.406Z,4.47
2017-07-21T21:22:16.989Z,4.70
2017-07-21T21:24:44.693Z,4.57
2017-07-21T21:27:12.268Z,5.50
2017-07-21T21:29:39.837Z,4.90
2017-07-21T21:32:07.404Z,4.60
2017-07-21T21:34:34.994Z,5.33
2017-07-21T21:37:02.599Z,4.77
2017-07-21T21:39:30.894Z,4.80
2017-07-21T21:41:58.485Z,5.53
2017-07-21T21:44:26.082Z,5.17
2017-07-21T21:46:54.423Z,5.40
2017-07-21T21:49:22.064Z,5.20
2017-07-21T21:51:49.656Z,5.40
2017-07-21T21:54:17.227Z,5.30
2017-07-21T21:56:44.818Z,5.70
2017-07-21T21:59:12.392Z,5.33
2017-07-21T22:01:40.061Z,5.70
2017-07-21T22:04:07.657Z,5.50
2017-07-21T22:06:35.225Z,5.53
2017-07-21T22:09:02.849Z,5.10
2017-07-21T22:11:30.481Z,5.67
2017-07-21T22:13:58.830Z,5.90
2017-07-21T22:16:26.389Z,5.00
2017-07-21T22:18:53.967Z,5.83
2017-07-21T22:21:21.574Z,5.33
2017-07-21T22:23:49.167Z,5.20
2017-07-21T22:26:16.758Z,5.47
2017-07-21T22:28:44.671Z,6.93
2017-07-21T22:31:12.235Z,5.60
2017-07-21T22:33:39.833Z,6.10
2017-07-21T22:36:07.390Z,5.30
2017-07-21T22:38:34.973Z,5.70
2017-07-21T22:41:03.330Z,6.40
2017-07-21T22:43:30.906Z,6.30
2017-07-21T22:45:58.476Z,6.57
2017-07-21T22:48:26.815Z,6.03
2017-07-21T22:50:54.518Z,6.00
2017-07-21T22:53:22.138Z,6.30
2017-07-21T22:55:49.710Z,6.40
2017-07-21T22:58:17.357Z,6.23
2017-07-21T23:00:44.970Z,6.60
2017-07-21T23:03:13.323Z,7.10
2017-07-21T23:05:40.898Z,6.83
2017-07-21T23:08:09.274Z,6.60
2017-07-21T23:10:36.848Z,7.17
2017-07-21T23:13:04.457Z,7.27
2017-07-21T23:15:32.050Z,6.63
2017-07-21T23:17:59.630Z,6.93
2017-07-21T23:20:27.205Z,7.03
2017-07-21T23:22:54.781Z,7.50
2017-07-21T23:25:22.378Z,7.30
2017-07-21T23:27:49.958Z,7.13
2017-07-21T23:30:18.321Z,7.80
2017-07-21T23:32:45.958Z,8.77
2017-07-21T23:35:13.536Z,8.43
2017-07-21T23:37:41.142Z,7.57
2017-07-21T23:40:08.775Z,8.40
2017-07-21T23:42:36.353Z,7.90
2017-07-21T23:45:03.957Z,8.63
2017-07-21T23:47:31.534Z,8.50
2017-07-21T23:49:59.101Z,8.63
2017-07-21T23:52:26.794Z,8.13
2017-07-21T23:54:54.370Z,9.03
2017-07-21T23:57:22.709Z,9.23
2017-07-21T23:59:50.294Z,8.87
